createdAt,value
2019-01-10T00:00:08.120Z,0.40
2019-01-10T00:01:07.707Z,0.40
2019-01-10T00:02:04.844Z,0.40
2019-01-10T00:03:07.619Z,0.40
2019-01-10T00:04:05.604Z,0.40
2019-01-10T00:05:07.353Z,0.40
2019-01-10T00:06:07.921Z,0.40
2019-01-10T00:07:04.991Z,0.40
2019-01-10T00:08:07.653Z,0.40
2019-01-10T00:09:05.611Z,0.40
2019-01-10T00:10:08.207Z,0.40
2019-01-10T00:11:05.170Z,0.50
2019-01-10T00:12:05.192Z,0.40
2019-01-10T00:13:05.373Z,0.40
2019-01-10T00:14:08.020Z,0.40
2019-01-10T00:15:05.055Z,0.40
2019-01-10T00:16:05.139Z,0.40
2019-01-10T00:17:05.251Z,0.40
2019-01-10T00:18:05.244Z,0.40
2019-01-10T00:19:05.311Z,0.40
2019-01-10T00:20:04.689Z,0.40
2019-01-10T00:21:04.758Z,0.50
2019-01-10T00:22:04.780Z,0.40
2019-01-10T00:23:04.803Z,0.50
2019-01-10T00:24:07.381Z,0.50
2019-01-10T00:25:05.350Z,0.50
2019-01-10T00:26:05.470Z,0.50
2019-01-10T00:27:05.476Z,0.50
2019-01-10T00:28:08.208Z,0.50
2019-01-10T00:29:05.305Z,0.50
2019-01-10T00:30:08.364Z,0.50
2019-01-10T00:31:05.333Z,0.50
2019-01-10T00:32:05.467Z,0.50
2019-01-10T00:33:08.163Z,0.50
2019-01-10T00:34:05.132Z,0.50
2019-01-10T00:35:05.363Z,0.50
2019-01-10T00:36:05.386Z,0.50
2019-01-10T00:37:05.459Z,0.50
2019-01-10T00:38:05.550Z,0.40
2019-01-10T00:39:08.204Z,0.50
2019-01-10T00:40:05.085Z,0.50
2019-01-10T00:41:05.223Z,0.50
2019-01-10T00:42:07.935Z,0.50
2019-01-10T00:43:04.846Z,0.50
2019-01-10T00:44:07.553Z,0.40
2019-01-10T00:45:08.078Z,0.50
2019-01-10T00:46:07.447Z,0.50
2019-01-10T00:47:07.906Z,0.50
2019-01-10T00:48:04.851Z,0.50
2019-01-10T00:49:10.121Z,0.50
2019-01-10T00:50:05.067Z,0.50
2019-01-10T00:51:05.079Z,0.50
2019-01-10T00:52:05.453Z,0.50
2019-01-10T00:53:05.648Z,0.50
2019-01-10T00:54:04.828Z,0.40
2019-01-10T00:55:04.977Z,0.50
2019-01-10T00:56:05.118Z,0.50
2019-01-10T00:57:07.715Z,0.50
2019-01-10T00:58:08.256Z,0.50
2019-01-10T00:59:05.182Z,0.50
2019-01-10T01:00:05.229Z,0.50
2019-01-10T01:01:05.524Z,0.40
2019-01-10T01:02:08.176Z,0.50
2019-01-10T01:03:07.630Z,0.50
2019-01-10T01:04:05.546Z,0.50
2019-01-10T01:05:05.689Z,0.50
2019-01-10T01:06:04.839Z,0.40
2019-01-10T01:07:05.006Z,0.40
2019-01-10T01:08:05.029Z,0.40
2019-01-10T01:09:05.055Z,0.50
2019-01-10T01:10:07.611Z,0.50
2019-01-10T01:11:05.675Z,0.50
2019-01-10T01:12:04.839Z,0.50
2019-01-10T01:13:04.952Z,0.40
2019-01-10T01:14:05.101Z,0.50
2019-01-10T01:15:07.765Z,0.40
2019-01-10T01:16:07.307Z,0.50
2019-01-10T01:17:10.375Z,0.40
2019-01-10T01:18:05.275Z,0.40
2019-01-10T01:19:05.341Z,0.40
2019-01-10T01:20:08.076Z,0.40
2019-01-10T01:21:07.652Z,0.40
2019-01-10T01:22:05.844Z,0.50
2019-01-10T01:23:07.517Z,0.40
2019-01-10T01:24:05.452Z,0.40
2019-01-10T01:25:07.985Z,0.40
2019-01-10T01:26:10.141Z,0.40
2019-01-10T01:27:05.182Z,0.40
2019-01-10T01:28:05.199Z,0.40
2019-01-10T01:29:05.394Z,0.40
2019-01-10T01:30:08.223Z,0.40
2019-01-10T01:31:10.380Z,0.40
2019-01-10T01:32:07.770Z,0.40
2019-01-10T01:33:05.635Z,0.40
2019-01-10T01:34:05.662Z,0.40
2019-01-10T01:35:04.738Z,0.40
2019-01-10T01:36:09.845Z,0.40
2019-01-10T01:37:04.823Z,0.40
2019-01-10T01:38:07.371Z,0.40
2019-01-10T01:39:07.758Z,0.50
2019-01-10T01:40:08.196Z,0.40
2019-01-10T01:41:05.136Z,0.40
2019-01-10T01:42:07.699Z,0.40
2019-01-10T01:43:07.394Z,0.40
2019-01-10T01:44:04.926Z,0.40
2019-01-10T01:45:05.115Z,0.40
2019-01-10T01:46:05.293Z,0.40
2019-01-10T01:47:05.552Z,0.40
2019-01-10T01:48:05.648Z,0.40
2019-01-10T01:49:04.782Z,0.40
2019-01-10T01:50:04.914Z,0.40
2019-01-10T01:51:05.018Z,0.40
2019-01-10T01:52:05.069Z,0.40
2019-01-10T01:53:07.632Z,0.40
2019-01-10T01:54:05.532Z,0.40
2019-01-10T01:55:05.598Z,0.40
2019-01-10T01:56:05.793Z,0.40
2019-01-10T01:57:04.942Z,0.40
2019-01-10T01:58:07.519Z,0.40
2019-01-10T01:59:05.491Z,0.40
2019-01-10T02:00:05.027Z,0.40
2019-01-10T02:01:05.116Z,0.40
2019-01-10T02:02:05.251Z,0.40
2019-01-10T02:03:05.401Z,0.40
2019-01-10T02:04:05.426Z,0.40
2019-01-10T02:05:05.500Z,0.40
2019-01-10T02:06:08.148Z,0.40
2019-01-10T02:07:05.120Z,0.40
2019-01-10T02:08:05.154Z,0.40
2019-01-10T02:09:05.387Z,0.40
2019-01-10T02:10:05.591Z,0.40
2019-01-10T02:11:08.257Z,0.40
2019-01-10T02:12:05.188Z,0.40
2019-01-10T02:13:05.295Z,0.40
2019-01-10T02:14:05.482Z,0.40
2019-01-10T02:15:05.690Z,0.40
2019-01-10T02:16:04.796Z,0.40
2019-01-10T02:17:07.562Z,0.40
2019-01-10T02:18:05.517Z,0.40
2019-01-10T02:19:05.654Z,0.40
2019-01-10T02:20:04.767Z,0.40
2019-01-10T02:21:04.827Z,0.40
2019-01-10T02:22:05.061Z,0.40
2019-01-10T02:23:07.685Z,0.40
2019-01-10T02:24:05.600Z,0.40
2019-01-10T02:25:04.838Z,0.40
2019-01-10T02:26:04.937Z,0.40
2019-01-10T02:27:04.997Z,0.40
2019-01-10T02:28:05.129Z,0.40
2019-01-10T02:29:05.136Z,0.40
2019-01-10T02:30:07.797Z,0.40
2019-01-10T02:31:04.876Z,0.40
2019-01-10T02:32:05.068Z,0.40
2019-01-10T02:33:05.088Z,0.40
2019-01-10T02:34:07.225Z,0.40
2019-01-10T02:35:05.138Z,0.40
2019-01-10T02:36:07.795Z,0.40
2019-01-10T02:37:04.726Z,0.40
2019-01-10T02:38:07.293Z,0.40
2019-01-10T02:39:07.895Z,0.40
2019-01-10T02:40:04.995Z,0.40
2019-01-10T02:41:05.178Z,0.40
2019-01-10T02:42:07.846Z,0.40
2019-01-10T02:43:07.388Z,0.40
2019-01-10T02:44:05.448Z,0.40
2019-01-10T02:45:05.536Z,0.40
2019-01-10T02:46:05.639Z,0.40
2019-01-10T02:47:04.688Z,0.40
2019-01-10T02:48:04.755Z,0.40
2019-01-10T02:49:04.787Z,0.40
2019-01-10T02:50:09.989Z,0.40
2019-01-10T02:51:07.453Z,0.40
2019-01-10T02:52:05.366Z,0.40
2019-01-10T02:53:05.415Z,0.40
2019-01-10T02:54:04.812Z,0.40
2019-01-10T02:55:07.370Z,0.40
2019-01-10T02:56:07.850Z,0.40
2019-01-10T02:57:04.899Z,0.40
2019-01-10T02:58:07.487Z,0.40
2019-01-10T02:59:05.603Z,0.40
2019-01-10T03:00:07.228Z,0.40
2019-01-10T03:01:07.808Z,0.40
2019-01-10T03:02:12.575Z,0.40
2019-01-10T03:03:08.051Z,0.40
2019-01-10T03:04:04.928Z,0.40
2019-01-10T03:05:04.922Z,0.40
2019-01-10T03:06:07.427Z,0.40
2019-01-10T03:07:08.029Z,0.40
2019-01-10T03:08:10.097Z,0.40
2019-01-10T03:09:07.588Z,0.40
2019-01-10T03:10:08.018Z,0.40
2019-01-10T03:11:04.949Z,0.40
2019-01-10T03:12:05.024Z,0.40
2019-01-10T03:13:05.117Z,0.40
2019-01-10T03:14:07.679Z,0.40
2019-01-10T03:15:08.110Z,0.40
2019-01-10T03:16:07.548Z,0.40
2019-01-10T03:17:05.679Z,0.40
2019-01-10T03:18:04.835Z,0.40
2019-01-10T03:19:07.471Z,0.40
2019-01-10T03:20:08.004Z,0.40
2019-01-10T03:21:07.516Z,0.40
2019-01-10T03:22:08.018Z,0.40
2019-01-10T03:23:07.500Z,0.40
2019-01-10T03:24:08.028Z,0.40
2019-01-10T03:25:05.054Z,0.30
2019-01-10T03:26:05.057Z,0.40
2019-01-10T03:27:07.644Z,0.40
2019-01-10T03:28:08.168Z,0.40
2019-01-10T03:29:05.085Z,0.30
2019-01-10T03:30:05.584Z,0.40
2019-01-10T03:31:08.210Z,0.30
2019-01-10T03:32:05.133Z,0.30
2019-01-10T03:33:05.167Z,0.40
2019-01-10T03:34:05.338Z,0.40
2019-01-10T03:35:07.927Z,0.40
2019-01-10T03:36:04.891Z,0.30
2019-01-10T03:37:05.046Z,0.40
2019-01-10T03:38:05.247Z,0.40
2019-01-10T03:39:07.936Z,0.30
2019-01-10T03:40:07.376Z,0.40
2019-01-10T03:41:05.416Z,0.40
2019-01-10T03:42:05.512Z,0.40
2019-01-10T03:43:08.117Z,0.40
2019-01-10T03:44:05.026Z,0.30
2019-01-10T03:45:07.635Z,0.40
2019-01-10T03:46:05.553Z,0.40
2019-01-10T03:47:08.127Z,0.30
2019-01-10T03:48:05.055Z,0.30
2019-01-10T03:49:05.137Z,0.30
2019-01-10T03:50:05.240Z,0.40
2019-01-10T03:51:05.424Z,0.40
2019-01-10T03:52:08.091Z,0.30
2019-01-10T03:53:05.051Z,0.30
2019-01-10T03:54:07.616Z,0.30
2019-01-10T03:55:05.618Z,0.30
2019-01-10T03:56:08.365Z,0.30
2019-01-10T03:57:05.375Z,0.30
2019-01-10T03:58:05.567Z,0.30
2019-01-10T03:59:05.719Z,0.30
2019-01-10T04:00:04.811Z,0.30
2019-01-10T04:01:04.785Z,0.30
2019-01-10T04:02:04.928Z,0.30
2019-01-10T04:03:05.050Z,0.30
2019-01-10T04:04:05.115Z,0.30
2019-01-10T04:05:05.221Z,0.30
2019-01-10T04:06:07.969Z,0.30
2019-01-10T04:07:04.935Z,0.30
2019-01-10T04:08:07.489Z,0.30
2019-01-10T04:09:08.003Z,0.30
2019-01-10T04:10:05.042Z,0.30
2019-01-10T04:11:05.030Z,0.30
2019-01-10T04:12:07.630Z,0.30
2019-01-10T04:13:05.588Z,0.20
2019-01-10T04:14:05.736Z,0.30
2019-01-10T04:15:04.890Z,0.30
2019-01-10T04:16:04.895Z,0.30
2019-01-10T04:17:05.032Z,0.30
2019-01-10T04:18:05.123Z,0.20
2019-01-10T04:19:05.237Z,0.20
2019-01-10T04:20:07.978Z,0.20
2019-01-10T04:21:04.952Z,0.20
2019-01-10T04:22:07.544Z,0.20
2019-01-10T04:23:08.166Z,0.20
2019-01-10T04:24:10.085Z,0.20
2019-01-10T04:25:05.021Z,0.20
2019-01-10T04:26:07.615Z,0.20
2019-01-10T04:27:05.661Z,0.20
2019-01-10T04:28:07.523Z,0.20
2019-01-10T04:29:05.421Z,0.20
2019-01-10T04:30:05.053Z,0.20
2019-01-10T04:31:07.647Z,0.20
2019-01-10T04:32:05.754Z,0.10
2019-01-10T04:33:04.806Z,0.20
2019-01-10T04:34:05.006Z,0.20
2019-01-10T04:35:05.115Z,0.20
2019-01-10T04:36:05.337Z,0.20
2019-01-10T04:37:05.387Z,0.10
2019-01-10T04:38:07.962Z,0.10
2019-01-10T04:39:05.041Z,0.10
2019-01-10T04:40:05.171Z,0.10
2019-01-10T04:41:05.215Z,0.20
2019-01-10T04:42:05.296Z,0.10
2019-01-10T04:43:05.545Z,0.10
2019-01-10T04:44:07.100Z,0.10
2019-01-10T04:45:05.492Z,0.10
2019-01-10T04:46:05.553Z,0.10
2019-01-10T04:47:08.111Z,0.10
2019-01-10T04:48:05.039Z,0.10
2019-01-10T04:49:05.096Z,0.10
2019-01-10T04:50:07.800Z,0.10
2019-01-10T04:51:04.814Z,0.10
2019-01-10T04:52:09.252Z,0.10
2019-01-10T04:53:05.240Z,0.10
2019-01-10T04:54:05.426Z,0.10
2019-01-10T04:55:05.511Z,0.10
2019-01-10T04:56:08.189Z,0.10
2019-01-10T04:57:05.195Z,0.10
2019-01-10T04:58:10.344Z,0.00
2019-01-10T04:59:05.371Z,0.10
2019-01-10T05:00:05.537Z,0.10
2019-01-10T05:01:05.558Z,0.10
2019-01-10T05:02:05.596Z,0.10
2019-01-10T05:03:08.212Z,0.10
2019-01-10T05:04:05.243Z,0.10
2019-01-10T05:05:12.944Z,0.00
2019-01-10T05:06:07.375Z,0.00
2019-01-10T05:07:05.319Z,0.10
2019-01-10T05:08:10.452Z,0.00
2019-01-10T05:09:08.025Z,0.00
2019-01-10T05:10:05.038Z,0.00
2019-01-10T05:11:05.146Z,0.00
2019-01-10T05:12:05.249Z,0.00
2019-01-10T05:13:05.267Z,0.00
2019-01-10T05:14:05.270Z,0.00
2019-01-10T05:15:05.331Z,0.00
2019-01-10T05:16:07.974Z,0.00
2019-01-10T05:17:04.900Z,0.10
2019-01-10T05:18:05.046Z,0.00
2019-01-10T05:19:05.133Z,0.10
2019-01-10T05:20:07.757Z,0.00
2019-01-10T05:21:07.287Z,0.00
2019-01-10T05:22:10.302Z,0.00
2019-01-10T05:23:05.379Z,0.00
2019-01-10T05:24:05.516Z,0.00
2019-01-10T05:25:08.648Z,0.00
2019-01-10T05:26:08.122Z,0.00
2019-01-10T05:27:05.161Z,0.00
2019-01-10T05:28:05.235Z,0.00
2019-01-10T05:29:05.417Z,0.00
2019-01-10T05:30:05.511Z,0.00
2019-01-10T05:31:05.523Z,0.00
2019-01-10T05:32:04.793Z,0.00
2019-01-10T05:33:05.031Z,0.00
2019-01-10T05:34:05.070Z,0.00
2019-01-10T05:35:10.268Z,0.00
2019-01-10T05:36:07.647Z,0.00
2019-01-10T05:37:10.598Z,0.00
2019-01-10T05:38:08.084Z,0.00
2019-01-10T05:39:05.014Z,-0.10
2019-01-10T05:40:10.211Z,0.00
2019-01-10T05:41:05.124Z,-0.10
2019-01-10T05:42:05.161Z,0.00
2019-01-10T05:43:07.683Z,-0.10
2019-01-10T05:44:05.683Z,-0.10
2019-01-10T05:45:04.683Z,0.00
2019-01-10T05:46:04.824Z,-0.10
2019-01-10T05:47:04.920Z,0.00
2019-01-10T05:48:05.022Z,0.00
2019-01-10T05:49:05.232Z,0.00
2019-01-10T05:50:05.335Z,0.00
2019-01-10T05:51:05.436Z,-0.10
2019-01-10T05:52:10.715Z,-0.10
2019-01-10T05:53:09.719Z,-0.10
2019-01-10T05:54:05.700Z,-0.10
2019-01-10T05:55:04.784Z,-0.10
2019-01-10T05:56:15.187Z,-0.10
2019-01-10T05:57:08.250Z,-0.10
2019-01-10T05:58:07.745Z,0.00
2019-01-10T05:59:04.748Z,-0.10
2019-01-10T06:00:07.534Z,-0.10
2019-01-10T06:01:05.559Z,-0.10
2019-01-10T06:02:05.617Z,-0.10
2019-01-10T06:03:04.723Z,-0.10
2019-01-10T06:04:04.817Z,-0.10
2019-01-10T06:05:05.027Z,-0.10
2019-01-10T06:06:07.801Z,-0.10
2019-01-10T06:07:04.798Z,-0.10
2019-01-10T06:08:04.895Z,-0.10
2019-01-10T06:09:04.958Z,-0.10
2019-01-10T06:10:07.540Z,-0.10
2019-01-10T06:11:05.409Z,-0.10
2019-01-10T06:12:05.436Z,-0.10
2019-01-10T06:13:08.153Z,-0.10
2019-01-10T06:14:05.127Z,-0.10
2019-01-10T06:15:05.215Z,-0.10
2019-01-10T06:16:05.293Z,-0.10
2019-01-10T06:17:07.882Z,-0.10
2019-01-10T06:18:04.822Z,-0.10
2019-01-10T06:19:04.866Z,-0.10
2019-01-10T06:20:04.998Z,-0.10
2019-01-10T06:21:05.083Z,-0.10
2019-01-10T06:22:05.177Z,-0.10
2019-01-10T06:23:07.830Z,-0.10
2019-01-10T06:24:04.794Z,-0.10
2019-01-10T06:25:04.964Z,-0.10
2019-01-10T06:26:05.235Z,-0.10
2019-01-10T06:27:05.433Z,-0.10
2019-01-10T06:28:05.601Z,-0.10
2019-01-10T06:29:05.626Z,-0.10
2019-01-10T06:30:04.870Z,-0.10
2019-01-10T06:31:05.101Z,-0.10
2019-01-10T06:32:05.495Z,-0.10
2019-01-10T06:33:05.661Z,-0.20
2019-01-10T06:34:06.456Z,-0.10
2019-01-10T06:35:04.697Z,-0.10
2019-01-10T06:36:17.564Z,-0.20
2019-01-10T06:37:05.600Z,-0.20
2019-01-10T06:38:04.790Z,-0.20
2019-01-10T06:39:04.910Z,-0.20
2019-01-10T06:40:05.127Z,-0.20
2019-01-10T06:41:05.393Z,-0.20
2019-01-10T06:42:10.539Z,-0.20
2019-01-10T06:43:07.957Z,-0.20
2019-01-10T06:44:04.880Z,-0.20
2019-01-10T06:45:04.894Z,-0.20
2019-01-10T06:46:07.623Z,-0.20
2019-01-10T06:47:08.133Z,-0.20
2019-01-10T06:48:05.023Z,-0.20
2019-01-10T06:49:07.706Z,-0.20
2019-01-10T06:50:05.482Z,-0.20
2019-01-10T06:51:05.652Z,-0.20
2019-01-10T06:52:04.700Z,-0.20
2019-01-10T06:53:04.770Z,-0.20
2019-01-10T06:54:04.855Z,-0.20
2019-01-10T06:55:04.992Z,-0.20
2019-01-10T06:56:07.630Z,-0.20
2019-01-10T06:57:08.249Z,-0.20
2019-01-10T06:58:05.113Z,-0.20
2019-01-10T06:59:10.377Z,-0.20
2019-01-10T07:00:07.905Z,-0.20
2019-01-10T07:01:07.444Z,-0.20
2019-01-10T07:02:06.946Z,-0.20
2019-01-10T07:03:05.225Z,-0.20
2019-01-10T07:04:05.336Z,-0.20
2019-01-10T07:05:05.476Z,-0.20
2019-01-10T07:06:08.143Z,-0.20
2019-01-10T07:07:05.089Z,-0.20
2019-01-10T07:08:05.201Z,-0.20
2019-01-10T07:09:07.812Z,-0.20
2019-01-10T07:10:09.760Z,-0.20
2019-01-10T07:11:08.247Z,-0.20
2019-01-10T07:12:07.972Z,-0.20
2019-01-10T07:13:05.003Z,-0.20
2019-01-10T07:14:05.181Z,-0.20
2019-01-10T07:15:05.336Z,-0.20
2019-01-10T07:16:05.446Z,-0.20
2019-01-10T07:17:05.621Z,-0.20
2019-01-10T07:18:05.622Z,-0.20
2019-01-10T07:19:07.325Z,-0.20
2019-01-10T07:20:05.330Z,-0.30
2019-01-10T07:21:05.388Z,-0.20
2019-01-10T07:22:05.708Z,-0.20
2019-01-10T07:23:07.322Z,-0.20
2019-01-10T07:24:05.183Z,-0.30
2019-01-10T07:25:10.346Z,-0.20
2019-01-10T07:26:07.943Z,-0.20
2019-01-10T07:27:04.949Z,-0.30
2019-01-10T07:28:05.204Z,-0.30
2019-01-10T07:29:05.196Z,-0.30
2019-01-10T07:30:04.811Z,-0.30
2019-01-10T07:31:07.380Z,-0.20
2019-01-10T07:32:05.363Z,-0.30
2019-01-10T07:33:05.489Z,-0.20
2019-01-10T07:34:08.147Z,-0.20
2019-01-10T07:35:07.783Z,-0.30
2019-01-10T07:36:07.340Z,-0.20
2019-01-10T07:37:12.546Z,-0.30
2019-01-10T07:38:05.056Z,-0.30
2019-01-10T07:39:05.199Z,-0.20
2019-01-10T07:40:05.290Z,-0.20
2019-01-10T07:41:07.846Z,-0.30
2019-01-10T07:42:04.768Z,-0.30
2019-01-10T07:43:07.433Z,-0.20
2019-01-10T07:44:10.068Z,-0.20
2019-01-10T07:45:05.175Z,-0.20
2019-01-10T07:46:05.246Z,-0.20
2019-01-10T07:47:05.337Z,-0.20
2019-01-10T07:48:05.451Z,-0.20
2019-01-10T07:49:13.075Z,-0.30
2019-01-10T07:50:07.548Z,-0.20
2019-01-10T07:51:08.240Z,-0.30
2019-01-10T07:52:05.159Z,-0.30
2019-01-10T07:53:05.206Z,-0.20
2019-01-10T07:54:05.409Z,-0.20
2019-01-10T07:55:10.590Z,-0.20
2019-01-10T07:56:08.298Z,-0.20
2019-01-10T07:57:05.290Z,-0.30
2019-01-10T07:58:07.885Z,-0.30
2019-01-10T07:59:04.799Z,-0.20
2019-01-10T08:00:05.050Z,-0.30
2019-01-10T08:01:07.759Z,-0.20
2019-01-10T08:02:07.198Z,-0.20
2019-01-10T08:03:05.101Z,-0.30
2019-01-10T08:04:05.201Z,-0.30
2019-01-10T08:05:07.854Z,-0.30
2019-01-10T08:06:04.805Z,-0.30
2019-01-10T08:07:07.407Z,-0.30
2019-01-10T08:08:05.392Z,-0.30
2019-01-10T08:09:05.389Z,-0.30
2019-01-10T08:10:05.415Z,-0.20
2019-01-10T08:11:05.506Z,-0.20
2019-01-10T08:12:08.159Z,-0.20
2019-01-10T08:13:05.101Z,-0.20
2019-01-10T08:14:05.180Z,-0.30
2019-01-10T08:15:11.854Z,-0.30
2019-01-10T08:16:05.311Z,-0.20
2019-01-10T08:17:05.548Z,-0.30
2019-01-10T08:18:05.606Z,-0.30
2019-01-10T08:19:10.756Z,-0.30
2019-01-10T08:20:05.675Z,-0.30
2019-01-10T08:21:04.728Z,-0.20
2019-01-10T08:22:04.770Z,-0.20
2019-01-10T08:23:07.413Z,-0.20
2019-01-10T08:24:05.403Z,-0.30
2019-01-10T08:25:05.698Z,-0.20
2019-01-10T08:26:04.786Z,-0.20
2019-01-10T08:27:04.863Z,-0.30
2019-01-10T08:28:04.982Z,-0.30
2019-01-10T08:29:05.205Z,-0.20
2019-01-10T08:30:08.074Z,-0.20
2019-01-10T08:31:05.163Z,-0.20
2019-01-10T08:32:05.257Z,-0.30
2019-01-10T08:33:07.841Z,-0.20
2019-01-10T08:34:07.458Z,-0.30
2019-01-10T08:35:08.037Z,-0.20
2019-01-10T08:36:05.128Z,-0.20
2019-01-10T08:37:05.262Z,-0.20
2019-01-10T08:38:05.468Z,-0.20
2019-01-10T08:39:08.151Z,-0.20
2019-01-10T08:40:05.046Z,-0.20
2019-01-10T08:41:05.261Z,-0.20
2019-01-10T08:42:07.901Z,-0.20
2019-01-10T08:43:04.824Z,-0.20
2019-01-10T08:44:04.848Z,-0.20
2019-01-10T08:45:05.012Z,-0.20
2019-01-10T08:46:05.127Z,-0.20
2019-01-10T08:47:07.736Z,-0.20
2019-01-10T08:48:05.767Z,-0.20
2019-01-10T08:49:10.373Z,-0.20
2019-01-10T08:50:07.890Z,-0.20
2019-01-10T08:51:04.804Z,-0.20
2019-01-10T08:52:04.839Z,-0.20
2019-01-10T08:53:04.854Z,-0.20
2019-01-10T08:54:05.065Z,-0.20
2019-01-10T08:55:05.192Z,-0.20
2019-01-10T08:56:05.233Z,-0.20
2019-01-10T08:57:05.412Z,-0.20
2019-01-10T08:58:05.431Z,-0.20
2019-01-10T08:59:05.548Z,-0.20
2019-01-10T09:00:09.623Z,-0.20
2019-01-10T09:01:04.761Z,-0.20
2019-01-10T09:02:07.347Z,-0.20
2019-01-10T09:03:05.317Z,-0.20
2019-01-10T09:04:05.429Z,-0.20
2019-01-10T09:05:05.649Z,-0.20
2019-01-10T09:06:08.147Z,-0.20
2019-01-10T09:07:05.521Z,-0.20
2019-01-10T09:08:05.583Z,-0.20
2019-01-10T09:09:05.725Z,-0.20
2019-01-10T09:10:07.411Z,-0.20
2019-01-10T09:11:05.396Z,-0.20
2019-01-10T09:12:08.059Z,-0.30
2019-01-10T09:13:05.197Z,-0.20
2019-01-10T09:14:07.810Z,-0.20
2019-01-10T09:15:04.672Z,-0.30
2019-01-10T09:16:04.941Z,-0.30
2019-01-10T09:17:05.022Z,-0.30
2019-01-10T09:18:05.073Z,-0.30
2019-01-10T09:19:05.013Z,-0.30
2019-01-10T09:20:07.584Z,-0.30
2019-01-10T09:21:05.518Z,-0.30
2019-01-10T09:22:08.219Z,-0.20
2019-01-10T09:23:05.189Z,-0.30
2019-01-10T09:24:05.265Z,-0.30
2019-01-10T09:25:05.508Z,-0.20
2019-01-10T09:26:05.566Z,-0.20
2019-01-10T09:27:05.799Z,-0.30
2019-01-10T09:28:04.853Z,-0.30
2019-01-10T09:29:04.997Z,-0.30
2019-01-10T09:30:07.965Z,-0.20
2019-01-10T09:31:04.896Z,-0.30
2019-01-10T09:32:05.137Z,-0.30
2019-01-10T09:33:05.211Z,-0.20
2019-01-10T09:34:07.725Z,-0.30
2019-01-10T09:35:05.636Z,-0.30
2019-01-10T09:36:04.667Z,-0.30
2019-01-10T09:37:04.838Z,-0.20
2019-01-10T09:38:07.454Z,-0.30
2019-01-10T09:39:07.910Z,-0.30
2019-01-10T09:40:07.392Z,-0.30
2019-01-10T09:41:07.868Z,-0.30
2019-01-10T09:42:09.877Z,-0.30
2019-01-10T09:43:04.797Z,-0.30
2019-01-10T09:44:06.033Z,-0.20
2019-01-10T09:45:07.760Z,-0.30
2019-01-10T09:46:04.654Z,-0.30
2019-01-10T09:47:04.728Z,-0.20
2019-01-10T09:48:07.434Z,-0.20
2019-01-10T09:49:07.941Z,-0.20
2019-01-10T09:50:04.972Z,-0.30
2019-01-10T09:51:05.106Z,-0.20
2019-01-10T09:52:05.229Z,-0.30
2019-01-10T09:53:05.321Z,-0.30
2019-01-10T09:54:05.371Z,-0.20
2019-01-10T09:55:07.952Z,-0.30
2019-01-10T09:56:10.098Z,-0.20
2019-01-10T09:57:05.098Z,-0.30
2019-01-10T09:58:05.227Z,-0.20
2019-01-10T09:59:07.851Z,-0.30
2019-01-10T10:00:04.830Z,-0.30
2019-01-10T10:01:07.483Z,-0.20
2019-01-10T10:02:06.151Z,-0.20
2019-01-10T10:03:05.357Z,-0.20
2019-01-10T10:04:07.960Z,-0.20
2019-01-10T10:05:12.569Z,-0.20
2019-01-10T10:06:07.699Z,-0.20
2019-01-10T10:07:07.704Z,-0.10
2019-01-10T10:08:08.217Z,-0.10
2019-01-10T10:09:05.241Z,-0.10
2019-01-10T10:10:06.666Z,-0.20
2019-01-10T10:11:07.427Z,-0.20
2019-01-10T10:12:05.442Z,-0.10
2019-01-10T10:13:10.616Z,-0.10
2019-01-10T10:14:08.194Z,-0.10
2019-01-10T10:15:05.148Z,-0.10
2019-01-10T10:16:05.327Z,-0.20
2019-01-10T10:17:08.006Z,-0.20
2019-01-10T10:18:12.699Z,-0.20
2019-01-10T10:19:04.766Z,-0.20
2019-01-10T10:20:04.976Z,-0.10
2019-01-10T10:21:10.590Z,-0.10
2019-01-10T10:22:08.079Z,-0.10
2019-01-10T10:23:04.961Z,-0.10
2019-01-10T10:24:07.532Z,-0.10
2019-01-10T10:25:05.473Z,-0.10
2019-01-10T10:26:05.501Z,-0.10
2019-01-10T10:27:05.555Z,-0.10
2019-01-10T10:28:05.606Z,-0.10
2019-01-10T10:29:04.742Z,0.00
2019-01-10T10:30:04.827Z,0.00
2019-01-10T10:31:05.008Z,-0.10
2019-01-10T10:32:10.257Z,0.00
2019-01-10T10:33:05.283Z,0.00
2019-01-10T10:34:05.389Z,0.00
2019-01-10T10:35:05.570Z,0.00
2019-01-10T10:36:10.775Z,0.00
2019-01-10T10:37:07.216Z,0.00
2019-01-10T10:38:05.185Z,0.00
2019-01-10T10:39:05.205Z,0.00
2019-01-10T10:40:05.357Z,0.00
2019-01-10T10:41:07.985Z,0.00
2019-01-10T10:42:07.491Z,0.00
2019-01-10T10:43:05.622Z,0.00
2019-01-10T10:44:07.265Z,-0.10
2019-01-10T10:45:05.136Z,0.00
2019-01-10T10:46:05.173Z,0.00
2019-01-10T10:47:05.180Z,0.00
2019-01-10T10:48:05.327Z,0.00
2019-01-10T10:49:05.295Z,0.00
2019-01-10T10:50:05.485Z,0.00
2019-01-10T10:51:05.705Z,0.00
2019-01-10T10:52:04.819Z,0.00
2019-01-10T10:53:04.970Z,0.10
2019-01-10T10:54:07.898Z,0.10
2019-01-10T10:55:04.898Z,0.00
2019-01-10T10:56:05.001Z,0.00
2019-01-10T10:57:05.170Z,0.10
2019-01-10T10:58:07.742Z,0.10
2019-01-10T10:59:05.661Z,0.00
2019-01-10T11:00:04.769Z,0.00
2019-01-10T11:01:09.971Z,0.00
2019-01-10T11:02:04.994Z,0.00
2019-01-10T11:03:05.104Z,0.00
2019-01-10T11:04:05.267Z,0.00
2019-01-10T11:05:07.848Z,0.00
2019-01-10T11:06:04.884Z,0.00
2019-01-10T11:07:10.072Z,0.00
2019-01-10T11:08:07.606Z,0.00
2019-01-10T11:09:09.159Z,0.00
2019-01-10T11:10:05.640Z,0.00
2019-01-10T11:11:04.754Z,0.00
2019-01-10T11:12:04.806Z,0.00
2019-01-10T11:13:04.892Z,0.00
2019-01-10T11:14:07.443Z,0.00
2019-01-10T11:15:07.968Z,0.00
2019-01-10T11:16:10.337Z,0.00
2019-01-10T11:17:07.435Z,0.00
2019-01-10T11:18:05.386Z,0.00
2019-01-10T11:19:05.515Z,0.00
2019-01-10T11:20:05.717Z,0.00
2019-01-10T11:21:04.934Z,0.00
2019-01-10T11:22:04.962Z,0.00
2019-01-10T11:23:10.364Z,0.00
2019-01-10T11:24:05.057Z,0.00
2019-01-10T11:25:07.603Z,0.00
2019-01-10T11:26:08.001Z,0.00
2019-01-10T11:27:07.456Z,0.00
2019-01-10T11:28:05.593Z,0.00
2019-01-10T11:29:05.709Z,0.00
2019-01-10T11:30:10.157Z,0.00
2019-01-10T11:31:05.159Z,0.00
2019-01-10T11:32:13.060Z,0.00
2019-01-10T11:33:07.934Z,0.00
2019-01-10T11:34:07.515Z,0.00
2019-01-10T11:35:05.634Z,0.00
2019-01-10T11:36:04.701Z,0.10
2019-01-10T11:37:04.904Z,0.10
2019-01-10T11:38:04.988Z,0.00
2019-01-10T11:39:05.064Z,0.10
2019-01-10T11:40:05.123Z,0.10
2019-01-10T11:41:05.370Z,0.10
2019-01-10T11:42:08.167Z,0.10
2019-01-10T11:43:05.140Z,0.00
2019-01-10T11:44:05.188Z,0.10
2019-01-10T11:45:07.745Z,0.00
2019-01-10T11:46:04.683Z,0.00
2019-01-10T11:47:07.346Z,0.00
2019-01-10T11:48:07.863Z,0.10
2019-01-10T11:49:04.806Z,0.00
2019-01-10T11:50:07.454Z,0.10
2019-01-10T11:51:05.336Z,0.00
2019-01-10T11:52:07.915Z,0.00
2019-01-10T11:53:07.339Z,0.10
2019-01-10T11:54:05.397Z,0.00
2019-01-10T11:55:08.129Z,0.00
2019-01-10T11:56:05.164Z,0.00
2019-01-10T11:57:05.327Z,0.00
2019-01-10T11:58:05.365Z,0.00
2019-01-10T11:59:05.580Z,0.00
2019-01-10T12:00:05.704Z,0.00
2019-01-10T12:01:07.322Z,0.10
2019-01-10T12:02:05.301Z,0.00
2019-01-10T12:03:05.410Z,0.00
2019-01-10T12:04:08.070Z,0.10
2019-01-10T12:05:05.027Z,0.00
2019-01-10T12:06:05.083Z,0.00
2019-01-10T12:07:07.687Z,0.10
2019-01-10T12:08:08.290Z,0.10
2019-01-10T12:09:05.288Z,0.10
2019-01-10T12:10:05.349Z,0.10
2019-01-10T12:11:08.029Z,0.10
2019-01-10T12:12:07.475Z,0.10
2019-01-10T12:13:08.111Z,0.10
2019-01-10T12:14:05.079Z,0.10
2019-01-10T12:15:05.102Z,0.10
2019-01-10T12:16:05.101Z,0.10
2019-01-10T12:17:05.178Z,0.10
2019-01-10T12:18:05.429Z,0.20
2019-01-10T12:19:05.512Z,0.20
2019-01-10T12:20:05.687Z,0.20
2019-01-10T12:21:07.393Z,0.10
2019-01-10T12:22:07.887Z,0.20
2019-01-10T12:23:04.829Z,0.10
2019-01-10T12:24:07.432Z,0.20
2019-01-10T12:25:05.693Z,0.10
2019-01-10T12:26:04.769Z,0.20
2019-01-10T12:27:04.900Z,0.10
2019-01-10T12:28:04.973Z,0.10
2019-01-10T12:29:05.008Z,0.10
2019-01-10T12:30:05.732Z,0.20
2019-01-10T12:31:09.907Z,0.10
2019-01-10T12:32:07.400Z,0.20
2019-01-10T12:33:07.879Z,0.10
2019-01-10T12:34:04.851Z,0.10
2019-01-10T12:35:04.961Z,0.20
2019-01-10T12:36:05.048Z,0.20
2019-01-10T12:37:05.082Z,0.10
2019-01-10T12:38:05.072Z,0.20
2019-01-10T12:39:05.044Z,0.20
2019-01-10T12:40:05.091Z,0.10
2019-01-10T12:41:07.648Z,0.10
2019-01-10T12:42:10.727Z,0.10
2019-01-10T12:43:05.698Z,0.10
2019-01-10T12:44:06.395Z,0.10
2019-01-10T12:45:05.573Z,0.10
2019-01-10T12:46:05.997Z,0.10
2019-01-10T12:47:05.327Z,0.10
2019-01-10T12:48:05.492Z,0.20
2019-01-10T12:49:05.550Z,0.20
2019-01-10T12:50:10.771Z,0.10
2019-01-10T12:51:04.647Z,0.20
2019-01-10T12:52:04.878Z,0.20
2019-01-10T12:53:05.041Z,0.20
2019-01-10T12:54:05.093Z,0.20
2019-01-10T12:55:05.127Z,0.20
2019-01-10T12:56:05.168Z,0.20
2019-01-10T12:57:05.468Z,0.20
2019-01-10T12:58:05.562Z,0.20
2019-01-10T12:59:05.775Z,0.20
2019-01-10T13:00:04.924Z,0.20
2019-01-10T13:01:07.565Z,0.20
2019-01-10T13:02:05.677Z,0.20
2019-01-10T13:03:04.770Z,0.20
2019-01-10T13:04:07.585Z,0.20
2019-01-10T13:05:05.615Z,0.20
2019-01-10T13:06:04.746Z,0.20
2019-01-10T13:07:05.087Z,0.20
2019-01-10T13:08:05.128Z,0.20
2019-01-10T13:09:07.850Z,0.20